createdAt,value
2023-01-24T00:00:21.867Z,9.70
2023-01-24T00:05:24.081Z,10.25
2023-01-24T00:10:26.351Z,8.70
2023-01-24T00:15:28.463Z,9.45
2023-01-24T00:20:30.643Z,8.48
2023-01-24T00:25:32.874Z,9.25
2023-01-24T00:30:35.033Z,8.80
2023-01-24T00:35:37.162Z,9.05
2023-01-24T00:40:39.376Z,8.38
2023-01-24T00:45:44.535Z,10.17
2023-01-24T00:50:46.604Z,9.40
2023-01-24T00:55:49.978Z,9.02
2023-01-24T01:00:56.415Z,9.60
2023-01-24T01:06:07.191Z,9.05
2023-01-24T01:11:09.516Z,9.73
2023-01-24T01:16:14.098Z,9.55
2023-01-24T01:21:18.724Z,9.50
2023-01-24T01:26:22.678Z,8.00
2023-01-24T01:31:24.891Z,10.00
2023-01-24T01:36:27.025Z,9.25
2023-01-24T01:41:29.333Z,9.20
2023-01-24T01:46:40.508Z,8.48
2023-01-24T01:51:49.369Z,8.75
2023-01-24T01:57:02.071Z,10.40
2023-01-24T02:02:06.689Z,9.88
2023-01-24T02:07:17.474Z,10.40
2023-01-24T02:12:39.420Z,10.97
2023-01-24T02:17:42.121Z,9.95
2023-01-24T02:23:05.348Z,8.50
2023-01-24T02:28:09.007Z,10.10
2023-01-24T02:33:20.288Z,9.95
2023-01-24T02:38:27.708Z,10.13
2023-01-24T02:43:31.685Z,10.05
2023-01-24T02:48:33.821Z,9.00
2023-01-24T02:53:36.029Z,11.40
2023-01-24T02:58:38.129Z,9.73
2023-01-24T03:03:40.964Z,10.57
2023-01-24T03:08:44.037Z,9.85
2023-01-24T03:14:06.505Z,9.15
2023-01-24T03:19:28.306Z,10.20
2023-01-24T03:24:50.691Z,9.87
2023-01-24T03:30:11.831Z,10.20
2023-01-24T03:35:15.407Z,10.20
2023-01-24T03:45:26.426Z,9.40
2023-01-24T03:50:53.043Z,8.45
2023-01-24T03:56:01.948Z,9.67
2023-01-24T04:01:05.419Z,9.50
2023-01-24T04:06:12.537Z,10.20
2023-01-24T04:11:14.681Z,10.23
2023-01-24T04:16:17.131Z,10.23
2023-01-24T04:21:19.775Z,9.30
2023-01-24T04:26:22.530Z,11.60
2023-01-24T04:31:25.945Z,9.90
2023-01-24T04:36:30.996Z,9.30
2023-01-24T04:41:33.781Z,10.83
2023-01-24T04:46:37.607Z,10.45
2023-01-24T04:51:42.857Z,10.82
2023-01-24T04:56:45.751Z,9.70
2023-01-24T05:01:47.983Z,8.25
2023-01-24T05:06:51.210Z,9.83
2023-01-24T05:11:53.508Z,9.07
2023-01-24T05:21:58.445Z,10.30
2023-01-24T05:27:01.015Z,11.60
2023-01-24T05:32:04.009Z,10.35
2023-01-24T05:37:06.517Z,9.45
2023-01-24T05:42:09.881Z,11.65
2023-01-24T05:47:14.403Z,10.37
2023-01-24T05:52:22.062Z,10.60
2023-01-24T05:57:25.660Z,10.47
2023-01-24T06:02:34.962Z,9.40
2023-01-24T06:07:37.193Z,8.80
2023-01-24T06:12:39.358Z,9.65
2023-01-24T06:17:41.536Z,9.63
2023-01-24T06:22:56.879Z,9.18
2023-01-24T06:27:59.889Z,10.10
2023-01-24T06:33:10.575Z,10.57
2023-01-24T06:38:39.183Z,9.17
2023-01-24T06:43:41.718Z,9.50
2023-01-24T06:48:45.233Z,9.60
2023-01-24T06:53:47.323Z,8.93
2023-01-24T06:58:49.441Z,10.27
2023-01-24T07:03:51.579Z,9.13
2023-01-24T07:08:53.938Z,11.32
2023-01-24T07:13:56.005Z,10.43
2023-01-24T07:18:58.369Z,9.43
2023-01-24T07:24:00.758Z,9.55
2023-01-24T07:29:02.849Z,9.68
2023-01-24T07:34:05.164Z,9.50
2023-01-24T07:39:07.299Z,10.02
2023-01-24T07:44:09.752Z,10.07
2023-01-24T07:54:13.901Z,8.55
2023-01-24T07:59:16.069Z,8.48
2023-01-24T08:04:18.280Z,10.23
2023-01-24T08:09:20.473Z,10.05
2023-01-24T08:14:23.086Z,8.20
2023-01-24T08:19:49.754Z,9.25
2023-01-24T08:24:47.478Z,8.75
2023-01-24T08:29:49.671Z,10.02
2023-01-24T08:34:51.839Z,9.82
2023-01-24T08:39:53.953Z,10.23
2023-01-24T08:44:56.073Z,9.93
2023-01-24T08:49:58.265Z,9.48
2023-01-24T08:55:00.410Z,10.80
2023-01-24T09:00:02.762Z,9.50
2023-01-24T09:05:07.197Z,9.43
2023-01-24T09:10:09.949Z,8.05
2023-01-24T09:15:12.511Z,8.85
2023-01-24T09:20:14.951Z,9.50
2023-01-24T09:30:21.547Z,9.30
2023-01-24T09:35:23.808Z,10.15
2023-01-24T09:40:30.873Z,9.20
2023-01-24T09:45:50.520Z,10.00
2023-01-24T09:51:00.867Z,8.10
2023-01-24T09:56:05.348Z,9.40
2023-01-24T10:01:15.637Z,8.40
2023-01-24T10:06:29.505Z,8.60
2023-01-24T10:12:02.000Z,9.50
2023-01-24T10:17:16.702Z,10.30
2023-01-24T10:22:54.834Z,9.75
2023-01-24T10:28:00.303Z,9.07
2023-01-24T10:33:11.099Z,9.03
2023-01-24T10:38:17.063Z,8.45
2023-01-24T10:43:23.373Z,9.25
2023-01-24T10:48:41.263Z,8.60
2023-01-24T10:53:43.659Z,9.30
2023-01-24T10:58:56.518Z,9.18
2023-01-24T11:03:58.750Z,8.38
2023-01-24T11:09:21.459Z,8.27
2023-01-24T11:14:36.988Z,8.30
2023-01-24T11:19:40.900Z,8.20
2023-01-24T11:24:45.141Z,8.83
2023-01-24T11:30:16.121Z,9.85
2023-01-24T11:35:27.506Z,7.60
2023-01-24T11:40:29.615Z,8.35
2023-01-24T11:45:37.776Z,7.47
2023-01-24T11:51:13.173Z,9.03
2023-01-24T11:56:40.946Z,7.23
2023-01-24T12:02:10.729Z,8.33
2023-01-24T12:07:18.269Z,7.67
2023-01-24T12:12:47.199Z,7.63
2023-01-24T12:18:14.980Z,7.83
2023-01-24T12:23:28.825Z,8.57
2023-01-24T12:28:52.068Z,7.60
2023-01-24T12:34:04.676Z,7.93
2023-01-24T12:39:20.424Z,8.32
2023-01-24T12:44:33.508Z,9.03
2023-01-24T12:55:17.178Z,7.83
2023-01-24T13:00:25.333Z,8.23
2023-01-24T13:05:37.424Z,7.00
2023-01-24T13:10:44.976Z,7.63
2023-01-24T13:15:55.856Z,7.73
2023-01-24T13:21:03.877Z,6.90
2023-01-24T13:26:27.031Z,7.87
2023-01-24T13:31:30.591Z,6.97
2023-01-24T13:36:36.068Z,6.93
2023-01-24T13:41:39.592Z,7.43
2023-01-24T13:46:45.163Z,7.10
2023-01-24T13:51:49.841Z,6.83
2023-01-24T13:57:06.415Z,7.17
2023-01-24T14:02:37.731Z,7.27
2023-01-24T14:07:41.644Z,6.85
2023-01-24T14:12:54.666Z,7.23
2023-01-24T14:23:03.624Z,6.07
2023-01-24T14:28:19.920Z,7.33
2023-01-24T14:33:54.948Z,6.23
2023-01-24T14:39:24.119Z,6.33
2023-01-24T14:44:38.046Z,7.33
2023-01-24T14:49:52.455Z,8.13
2023-01-24T14:55:01.418Z,6.73
2023-01-24T15:00:13.134Z,7.43
2023-01-24T15:05:36.947Z,6.90
2023-01-24T15:10:43.412Z,7.60
2023-01-24T15:15:46.485Z,7.50
2023-01-24T15:20:49.304Z,7.27
2023-01-24T15:25:51.446Z,7.60
2023-01-24T15:31:01.517Z,7.35
2023-01-24T15:36:03.948Z,6.65
2023-01-24T15:41:11.648Z,7.10
2023-01-24T15:46:41.351Z,6.80
2023-01-24T15:51:44.653Z,8.00
2023-01-24T15:57:00.735Z,8.10
2023-01-24T16:02:03.258Z,7.85
2023-01-24T16:07:05.403Z,8.27
2023-01-24T16:12:13.177Z,7.32
2023-01-24T16:17:18.152Z,7.65
2023-01-24T16:22:20.394Z,8.00
2023-01-24T16:27:22.632Z,8.32
2023-01-24T16:32:24.886Z,7.50
2023-01-24T16:37:27.085Z,8.07
2023-01-24T16:42:29.305Z,7.18
2023-01-24T16:47:31.468Z,8.27
2023-01-24T16:52:33.612Z,8.38
2023-01-24T16:57:35.744Z,10.00
2023-01-24T17:02:38.014Z,8.10
2023-01-24T17:07:40.283Z,8.05
2023-01-24T17:12:42.526Z,8.32
2023-01-24T17:17:44.663Z,8.38
2023-01-24T17:22:46.743Z,9.15
2023-01-24T17:27:48.852Z,7.82
2023-01-24T17:32:51.077Z,8.13
2023-01-24T17:37:53.240Z,8.35
2023-01-24T17:42:55.374Z,7.62
2023-01-24T17:47:57.647Z,7.37
2023-01-24T17:52:59.785Z,8.13
2023-01-24T17:58:01.999Z,7.90
2023-01-24T18:03:05.095Z,6.95
2023-01-24T18:08:07.949Z,8.60
2023-01-24T18:13:10.179Z,7.40
2023-01-24T18:18:13.343Z,8.15
2023-01-24T18:23:15.436Z,7.15
2023-01-24T18:28:17.625Z,7.97
2023-01-24T18:33:19.860Z,7.62
2023-01-24T18:38:22.065Z,6.50
2023-01-24T18:43:24.262Z,7.10
2023-01-24T18:48:26.454Z,8.00
2023-01-24T18:53:28.640Z,7.03
2023-01-24T18:58:32.380Z,8.90
2023-01-24T19:03:34.519Z,7.05
2023-01-24T19:08:41.673Z,6.10
2023-01-24T19:13:48.139Z,6.65
2023-01-24T19:18:51.629Z,7.30
2023-01-24T19:23:53.866Z,6.50
2023-01-24T19:28:57.692Z,6.65
2023-01-24T19:34:00.018Z,6.70
2023-01-24T19:39:02.617Z,7.10
2023-01-24T19:49:23.661Z,8.00
2023-01-24T19:54:25.761Z,7.28
2023-01-24T19:59:28.663Z,7.62
2023-01-24T20:04:38.208Z,7.57
2023-01-24T20:09:43.563Z,9.07
2023-01-24T20:14:45.666Z,6.70
2023-01-24T20:19:59.803Z,8.95
2023-01-24T20:25:17.467Z,8.45
2023-01-24T20:30:21.453Z,8.40
2023-01-24T20:35:23.639Z,8.35
2023-01-24T20:40:25.855Z,8.10
2023-01-24T20:45:28.990Z,8.40
2023-01-24T20:50:31.099Z,9.27
2023-01-24T20:55:33.312Z,9.25
2023-01-24T21:00:36.086Z,8.60
2023-01-24T21:05:38.230Z,9.63
2023-01-24T21:10:48.821Z,8.35
2023-01-24T21:15:51.044Z,8.60
2023-01-24T21:20:57.600Z,9.77
2023-01-24T21:26:08.391Z,9.15
2023-01-24T21:31:16.782Z,9.35
2023-01-24T21:36:20.993Z,8.80
2023-01-24T21:41:42.270Z,9.00
2023-01-24T21:46:44.545Z,8.70
2023-01-24T21:51:48.952Z,9.65
2023-01-24T21:57:30.781Z,9.85
2023-01-24T22:02:35.634Z,9.50
2023-01-24T22:07:37.876Z,10.05
2023-01-24T22:12:40.137Z,9.40
2023-01-24T22:17:42.457Z,9.48
2023-01-24T22:22:53.740Z,9.93
2023-01-24T22:27:56.481Z,9.60
2023-01-24T22:33:00.881Z,10.65
2023-01-24T22:38:03.092Z,9.65
2023-01-24T22:43:05.257Z,10.38
2023-01-24T22:48:17.116Z,9.50
2023-01-24T22:53:19.263Z,10.15
2023-01-24T22:58:21.375Z,9.23
2023-01-24T23:03:23.432Z,10.57
2023-01-24T23:08:25.578Z,10.60
2023-01-24T23:13:46.157Z,9.63
2023-01-24T23:19:08.731Z,9.65
2023-01-24T23:24:10.883Z,9.40
2023-01-24T23:29:12.943Z,8.98
2023-01-24T23:34:35.995Z,10.02
2023-01-24T23:39:38.569Z,8.95
2023-01-24T23:44:40.683Z,9.25
2023-01-24T23:49:44.043Z,9.43
2023-01-24T23:54:46.537Z,10.15
